sensor_id;sensor_type;location;lat;lon;timestamp;P1;durP1;ratioP1;P2;durP2;ratioP2
75297;SDS011;63896;45.990;18.688;2023-02-26T00:02:15;4.72;;;2.50;;
75297;SDS011;63896;45.990;18.688;2023-02-26T00:05:18;4.57;;;2.20;;
75297;SDS011;63896;45.990;18.688;2023-02-26T00:08:21;5.07;;;2.60;;
75297;SDS011;63896;45.990;18.688;2023-02-26T00:11:24;5.17;;;2.20;;
75297;SDS011;63896;45.990;18.688;2023-02-26T00:14:27;5.17;;;2.20;;
75297;SDS011;63896;45.990;18.688;2023-02-26T00:20:36;6.78;;;2.97;;
75297;SDS011;63896;45.990;18.688;2023-02-26T00:23:39;7.30;;;3.10;;
75297;SDS011;63896;45.990;18.688;2023-02-26T00:26:42;6.87;;;2.60;;
75297;SDS011;63896;45.990;18.688;2023-02-26T00:29:45;7.77;;;3.13;;
75297;SDS011;63896;45.990;18.688;2023-02-26T00:32:49;6.30;;;3.00;;
75297;SDS011;63896;45.990;18.688;2023-02-26T00:35:53;5.78;;;2.90;;
75297;SDS011;63896;45.990;18.688;2023-02-26T00:42:42;5.00;;;2.47;;
75297;SDS011;63896;45.990;18.688;2023-02-26T00:45:57;6.17;;;3.03;;
75297;SDS011;63896;45.990;18.688;2023-02-26T00:49:21;5.15;;;2.80;;
75297;SDS011;63896;45.990;18.688;2023-02-26T00:52:35;3.97;;;1.73;;
75297;SDS011;63896;45.990;18.688;2023-02-26T00:55:45;7.20;;;2.42;;
75297;SDS011;63896;45.990;18.688;2023-02-26T00:58:48;3.50;;;2.03;;
75297;SDS011;63896;45.990;18.688;2023-02-26T01:01:51;3.43;;;2.10;;
75297;SDS011;63896;45.990;18.688;2023-02-26T01:04:55;4.15;;;2.03;;
75297;SDS011;63896;45.990;18.688;2023-02-26T01:11:15;4.85;;;2.55;;
75297;SDS011;63896;45.990;18.688;2023-02-26T01:14:18;3.83;;;2.43;;
75297;SDS011;63896;45.990;18.688;2023-02-26T01:17:31;4.37;;;2.43;;
75297;SDS011;63896;45.990;18.688;2023-02-26T01:20:45;5.82;;;3.03;;
75297;SDS011;63896;45.990;18.688;2023-02-26T01:23:51;5.10;;;2.28;;
75297;SDS011;63896;45.990;18.688;2023-02-26T01:26:54;4.00;;;2.33;;
75297;SDS011;63896;45.990;18.688;2023-02-26T01:29:57;5.87;;;2.80;;
75297;SDS011;63896;45.990;18.688;2023-02-26T01:33:11;6.17;;;2.87;;
75297;SDS011;63896;45.990;18.688;2023-02-26T01:36:27;7.45;;;2.72;;
75297;SDS011;63896;45.990;18.688;2023-02-26T01:39:39;4.55;;;2.22;;
75297;SDS011;63896;45.990;18.688;2023-02-26T01:42:51;5.05;;;1.88;;
75297;SDS011;63896;45.990;18.688;2023-02-26T01:46:04;5.93;;;2.50;;
75297;SDS011;63896;45.990;18.688;2023-02-26T01:49:18;3.67;;;1.87;;
75297;SDS011;63896;45.990;18.688;2023-02-26T01:55:35;4.55;;;2.17;;
75297;SDS011;63896;45.990;18.688;2023-02-26T01:58:39;5.47;;;2.60;;
75297;SDS011;63896;45.990;18.688;2023-02-26T02:01:43;5.37;;;2.43;;
75297;SDS011;63896;45.990;18.688;2023-02-26T02:04:46;8.17;;;2.83;;
75297;SDS011;63896;45.990;18.688;2023-02-26T02:07:51;6.47;;;2.42;;
75297;SDS011;63896;45.990;18.688;2023-02-26T02:10:54;5.75;;;2.45;;
75297;SDS011;63896;45.990;18.688;2023-02-26T02:17:43;8.43;;;3.20;;
75297;SDS011;63896;45.990;18.688;2023-02-26T02:24:13;4.85;;;2.72;;
75297;SDS011;63896;45.990;18.688;2023-02-26T02:27:29;5.85;;;2.78;;
75297;SDS011;63896;45.990;18.688;2023-02-26T02:34:23;6.30;;;2.77;;
75297;SDS011;63896;45.990;18.688;2023-02-26T02:37:36;5.10;;;3.03;;
75297;SDS011;63896;45.990;18.688;2023-02-26T02:40:47;6.22;;;2.90;;
75297;SDS011;63896;45.990;18.688;2023-02-26T02:43:54;12.65;;;3.92;;
75297;SDS011;63896;45.990;18.688;2023-02-26T02:47:01;6.82;;;2.83;;
75297;SDS011;63896;45.990;18.688;2023-02-26T02:53:17;6.87;;;3.10;;
75297;SDS011;63896;45.990;18.688;2023-02-26T02:56:28;7.05;;;3.17;;
75297;SDS011;63896;45.990;18.688;2023-02-26T03:02:56;6.35;;;2.95;;
75297;SDS011;63896;45.990;18.688;2023-02-26T03:06:06;5.83;;;3.27;;
75297;SDS011;63896;45.990;18.688;2023-02-26T03:09:09;8.00;;;3.13;;
75297;SDS011;63896;45.990;18.688;2023-02-26T03:12:15;8.23;;;3.90;;
75297;SDS011;63896;45.990;18.688;2023-02-26T03:15:25;6.03;;;2.47;;
75297;SDS011;63896;45.990;18.688;2023-02-26T03:28:58;4.28;;;1.90;;
75297;SDS011;63896;45.990;18.688;2023-02-26T03:32:05;4.95;;;2.22;;
75297;SDS011;63896;45.990;18.688;2023-02-26T03:35:33;4.38;;;2.50;;
75297;SDS011;63896;45.990;18.688;2023-02-26T03:45:31;4.07;;;2.10;;
75297;SDS011;63896;45.990;18.688;2023-02-26T03:48:37;3.60;;;1.85;;
75297;SDS011;63896;45.990;18.688;2023-02-26T03:51:40;3.17;;;1.95;;
75297;SDS011;63896;45.990;18.688;2023-02-26T03:55:41;4.30;;;1.90;;
75297;SDS011;63896;45.990;18.688;2023-02-26T03:59:03;5.53;;;2.00;;
75297;SDS011;63896;45.990;18.688;2023-02-26T04:02:44;6.70;;;2.80;;
75297;SDS011;63896;45.990;18.688;2023-02-26T04:06:04;4.82;;;2.70;;
75297;SDS011;63896;45.990;18.688;2023-02-26T04:09:08;8.70;;;3.20;;
75297;SDS011;63896;45.990;18.688;2023-02-26T04:12:11;5.57;;;3.00;;
75297;SDS011;63896;45.990;18.688;2023-02-26T04:15:19;6.03;;;2.77;;
75297;SDS011;63896;45.990;18.688;2023-02-26T04:18:22;5.43;;;2.90;;
75297;SDS011;63896;45.990;18.688;2023-02-26T04:21:25;7.63;;;2.78;;
75297;SDS011;63896;45.990;18.688;2023-02-26T04:24:28;8.05;;;3.58;;
75297;SDS011;63896;45.990;18.688;2023-02-26T04:27:34;7.83;;;3.30;;
75297;SDS011;63896;45.990;18.688;2023-02-26T04:30:38;4.77;;;2.73;;
75297;SDS011;63896;45.990;18.688;2023-02-26T04:33:43;4.68;;;1.95;;
75297;SDS011;63896;45.990;18.688;2023-02-26T04:36:46;4.10;;;2.13;;
75297;SDS011;63896;45.990;18.688;2023-02-26T04:39:49;5.25;;;2.60;;
75297;SDS011;63896;45.990;18.688;2023-02-26T04:42:52;5.03;;;2.70;;
75297;SDS011;63896;45.990;18.688;2023-02-26T04:45:59;4.13;;;2.40;;
75297;SDS011;63896;45.990;18.688;2023-02-26T04:49:03;4.50;;;2.50;;
75297;SDS011;63896;45.990;18.688;2023-02-26T04:52:06;4.72;;;2.70;;
75297;SDS011;63896;45.990;18.688;2023-02-26T04:55:10;4.13;;;2.38;;
75297;SDS011;63896;45.990;18.688;2023-02-26T04:58:13;3.73;;;2.40;;
75297;SDS011;63896;45.990;18.688;2023-02-26T05:01:16;4.23;;;2.33;;
75297;SDS011;63896;45.990;18.688;2023-02-26T05:04:19;4.55;;;2.40;;
75297;SDS011;63896;45.990;18.688;2023-02-26T05:07:25;5.78;;;2.50;;
75297;SDS011;63896;45.990;18.688;2023-02-26T05:10:28;5.95;;;3.08;;
75297;SDS011;63896;45.990;18.688;2023-02-26T05:13:31;4.63;;;2.30;;
75297;SDS011;63896;45.990;18.688;2023-02-26T05:16:34;6.23;;;2.93;;
75297;SDS011;63896;45.990;18.688;2023-02-26T05:19:37;6.63;;;3.20;;
75297;SDS011;63896;45.990;18.688;2023-02-26T05:22:40;7.32;;;3.50;;
75297;SDS011;63896;45.990;18.688;2023-02-26T05:25:44;5.35;;;2.80;;
75297;SDS011;63896;45.990;18.688;2023-02-26T05:28:48;4.40;;;2.80;;
75297;SDS011;63896;45.990;18.688;2023-02-26T05:31:52;5.03;;;2.40;;
75297;SDS011;63896;45.990;18.688;2023-02-26T05:34:55;4.35;;;2.83;;
75297;SDS011;63896;45.990;18.688;2023-02-26T05:37:58;5.43;;;2.85;;
75297;SDS011;63896;45.990;18.688;2023-02-26T05:41:01;5.25;;;2.65;;
75297;SDS011;63896;45.990;18.688;2023-02-26T05:44:04;5.30;;;2.83;;
75297;SDS011;63896;45.990;18.688;2023-02-26T05:47:09;6.57;;;2.93;;
75297;SDS011;63896;45.990;18.688;2023-02-26T05:50:13;5.28;;;3.10;;
75297;SDS011;63896;45.990;18.688;2023-02-26T05:53:16;7.13;;;4.03;;
75297;SDS011;63896;45.990;18.688;2023-02-26T05:56:19;8.70;;;3.45;;
75297;SDS011;63896;45.990;18.688;2023-02-26T05:59:22;7.67;;;3.50;;
75297;SDS011;63896;45.990;18.688;2023-02-26T06:02:25;6.03;;;2.93;;
75297;SDS011;63896;45.990;18.688;2023-02-26T06:05:28;5.28;;;3.05;;
75297;SDS011;63896;45.990;18.688;2023-02-26T06:08:32;8.32;;;4.30;;
75297;SDS011;63896;45.990;18.688;2023-02-26T06:11:35;7.57;;;3.67;;
75297;SDS011;63896;45.990;18.688;2023-02-26T06:14:40;8.57;;;4.33;;
75297;SDS011;63896;45.990;18.688;2023-02-26T06:17:42;8.13;;;3.70;;
75297;SDS011;63896;45.990;18.688;2023-02-26T06:20:45;6.70;;;3.35;;
75297;SDS011;63896;45.990;18.688;2023-02-26T06:23:48;7.57;;;3.80;;
75297;SDS011;63896;45.990;18.688;2023-02-26T06:26:51;9.30;;;4.55;;
75297;SDS011;63896;45.990;18.688;2023-02-26T06:29:54;8.67;;;5.10;;
75297;SDS011;63896;45.990;18.688;2023-02-26T06:32:57;11.40;;;4.90;;
75297;SDS011;63896;45.990;18.688;2023-02-26T06:36:00;11.05;;;5.55;;
75297;SDS011;63896;45.990;18.688;2023-02-26T06:39:04;10.98;;;5.55;;
75297;SDS011;63896;45.990;18.688;2023-02-26T06:42:07;8.55;;;4.50;;
75297;SDS011;63896;45.990;18.688;2023-02-26T06:45:10;9.03;;;4.70;;
75297;SDS011;63896;45.990;18.688;2023-02-26T06:48:13;6.90;;;3.90;;
75297;SDS011;63896;45.990;18.688;2023-02-26T06:51:16;9.40;;;4.47;;
75297;SDS011;63896;45.990;18.688;2023-02-26T06:54:18;8.75;;;3.92;;
75297;SDS011;63896;45.990;18.688;2023-02-26T06:57:21;6.15;;;3.80;;
75297;SDS011;63896;45.990;18.688;2023-02-26T07:00:24;7.67;;;4.23;;
75297;SDS011;63896;45.990;18.688;2023-02-26T07:03:27;6.93;;;3.40;;
75297;SDS011;63896;45.990;18.688;2023-02-26T07:06:30;8.35;;;4.20;;
75297;SDS011;63896;45.990;18.688;2023-02-26T07:09:36;16.48;;;7.50;;
75297;SDS011;63896;45.990;18.688;2023-02-26T07:12:39;12.02;;;5.82;;
75297;SDS011;63896;45.990;18.688;2023-02-26T07:15:42;8.93;;;4.80;;
75297;SDS011;63896;45.990;18.688;2023-02-26T07:18:47;6.80;;;3.67;;
75297;SDS011;63896;45.990;18.688;2023-02-26T07:21:50;8.35;;;4.13;;
75297;SDS011;63896;45.990;18.688;2023-02-26T07:24:53;9.88;;;5.25;;
75297;SDS011;63896;45.990;18.688;2023-02-26T07:27:57;9.18;;;5.10;;
75297;SDS011;63896;45.990;18.688;2023-02-26T07:31:01;8.83;;;5.10;;
75297;SDS011;63896;45.990;18.688;2023-02-26T07:34:04;8.63;;;4.80;;
75297;SDS011;63896;45.990;18.688;2023-02-26T07:37:07;10.82;;;5.65;;
75297;SDS011;63896;45.990;18.688;2023-02-26T07:40:11;9.65;;;5.40;;
75297;SDS011;63896;45.990;18.688;2023-02-26T07:43:14;11.32;;;5.80;;
75297;SDS011;63896;45.990;18.688;2023-02-26T07:46:17;9.53;;;5.57;;
75297;SDS011;63896;45.990;18.688;2023-02-26T07:49:20;11.73;;;6.90;;
75297;SDS011;63896;45.990;18.688;2023-02-26T07:52:23;8.45;;;5.20;;
75297;SDS011;63896;45.990;18.688;2023-02-26T07:55:26;11.35;;;6.38;;
75297;SDS011;63896;45.990;18.688;2023-02-26T07:58:29;9.70;;;5.80;;
75297;SDS011;63896;45.990;18.688;2023-02-26T08:01:32;10.60;;;5.97;;
75297;SDS011;63896;45.990;18.688;2023-02-26T08:04:35;9.33;;;5.40;;
75297;SDS011;63896;45.990;18.688;2023-02-26T08:07:38;8.77;;;5.72;;
75297;SDS011;63896;45.990;18.688;2023-02-26T08:10:41;11.98;;;5.65;;
75297;SDS011;63896;45.990;18.688;2023-02-26T08:13:44;11.27;;;6.57;;
75297;SDS011;63896;45.990;18.688;2023-02-26T08:16:47;10.77;;;6.03;;
75297;SDS011;63896;45.990;18.688;2023-02-26T08:19:50;7.87;;;5.33;;
75297;SDS011;63896;45.990;18.688;2023-02-26T08:22:54;9.68;;;6.10;;
75297;SDS011;63896;45.990;18.688;2023-02-26T08:26:04;10.13;;;5.85;;
75297;SDS011;63896;45.990;18.688;2023-02-26T08:29:09;8.38;;;5.90;;
75297;SDS011;63896;45.990;18.688;2023-02-26T08:32:12;10.57;;;5.67;;
75297;SDS011;63896;45.990;18.688;2023-02-26T08:35:17;9.17;;;5.50;;
75297;SDS011;63896;45.990;18.688;2023-02-26T08:38:20;8.98;;;5.40;;
75297;SDS011;63896;45.990;18.688;2023-02-26T08:41:23;9.75;;;6.15;;
75297;SDS011;63896;45.990;18.688;2023-02-26T08:44:29;7.78;;;5.25;;
75297;SDS011;63896;45.990;18.688;2023-02-26T08:47:32;9.37;;;5.80;;
75297;SDS011;63896;45.990;18.688;2023-02-26T08:50:41;6.43;;;3.33;;
75297;SDS011;63896;45.990;18.688;2023-02-26T08:53:44;10.15;;;6.70;;
75297;SDS011;63896;45.990;18.688;2023-02-26T08:56:48;9.10;;;4.95;;
75297;SDS011;63896;45.990;18.688;2023-02-26T08:59:51;8.57;;;4.80;;
75297;SDS011;63896;45.990;18.688;2023-02-26T09:02:54;10.57;;;6.20;;
75297;SDS011;63896;45.990;18.688;2023-02-26T09:05:57;11.90;;;6.00;;
75297;SDS011;63896;45.990;18.688;2023-02-26T09:09:00;9.38;;;5.85;;
75297;SDS011;63896;45.990;18.688;2023-02-26T09:12:03;11.35;;;5.90;;
75297;SDS011;63896;45.990;18.688;2023-02-26T09:15:07;10.05;;;5.80;;
75297;SDS011;63896;45.990;18.688;2023-02-26T09:18:11;11.27;;;5.53;;
75297;SDS011;63896;45.990;18.688;2023-02-26T09:21:17;13.87;;;6.97;;
75297;SDS011;63896;45.990;18.688;2023-02-26T09:24:20;12.05;;;5.85;;
75297;SDS011;63896;45.990;18.688;2023-02-26T09:27:23;10.95;;;5.57;;
75297;SDS011;63896;45.990;18.688;2023-02-26T09:30:26;10.73;;;5.70;;
75297;SDS011;63896;45.990;18.688;2023-02-26T09:33:29;14.67;;;6.97;;
75297;SDS011;63896;45.990;18.688;2023-02-26T09:36:32;11.47;;;5.70;;
75297;SDS011;63896;45.990;18.688;2023-02-26T09:39:35;9.20;;;4.75;;
75297;SDS011;63896;45.990;18.688;2023-02-26T09:42:44;9.70;;;5.00;;
75297;SDS011;63896;45.990;18.688;2023-02-26T09:45:50;9.50;;;4.82;;
75297;SDS011;63896;45.990;18.688;2023-02-26T09:49:02;10.27;;;5.80;;
75297;SDS011;63896;45.990;18.688;2023-02-26T09:52:24;10.83;;;6.47;;
75297;SDS011;63896;45.990;18.688;2023-02-26T09:55:43;8.40;;;4.75;;
75297;SDS011;63896;45.990;18.688;2023-02-26T09:58:49;10.55;;;5.47;;
75297;SDS011;63896;45.990;18.688;2023-02-26T10:05:20;7.87;;;4.60;;
75297;SDS011;63896;45.990;18.688;2023-02-26T10:08:30;9.40;;;5.10;;
75297;SDS011;63896;45.990;18.688;2023-02-26T10:14:50;9.85;;;5.05;;
75297;SDS011;63896;45.990;18.688;2023-02-26T10:18:12;9.45;;;5.88;;
75297;SDS011;63896;45.990;18.688;2023-02-26T10:21:39;11.00;;;5.07;;
75297;SDS011;63896;45.990;18.688;2023-02-26T10:24:51;9.23;;;4.40;;
75297;SDS011;63896;45.990;18.688;2023-02-26T10:28:05;7.53;;;4.55;;
75297;SDS011;63896;45.990;18.688;2023-02-26T10:31:25;12.43;;;5.50;;
75297;SDS011;63896;45.990;18.688;2023-02-26T10:34:35;8.73;;;5.65;;
75297;SDS011;63896;45.990;18.688;2023-02-26T10:37:48;10.03;;;5.50;;
75297;SDS011;63896;45.990;18.688;2023-02-26T10:41:04;8.10;;;5.00;;
75297;SDS011;63896;45.990;18.688;2023-02-26T10:44:16;10.57;;;6.47;;
75297;SDS011;63896;45.990;18.688;2023-02-26T10:50:57;12.35;;;6.70;;
75297;SDS011;63896;45.990;18.688;2023-02-26T10:54:15;9.73;;;5.73;;
75297;SDS011;63896;45.990;18.688;2023-02-26T10:57:27;10.40;;;5.20;;
75297;SDS011;63896;45.990;18.688;2023-02-26T11:00:36;10.27;;;6.10;;
75297;SDS011;63896;45.990;18.688;2023-02-26T11:03:49;9.80;;;4.97;;
75297;SDS011;63896;45.990;18.688;2023-02-26T11:06:57;10.63;;;5.45;;
75297;SDS011;63896;45.990;18.688;2023-02-26T11:10:02;7.70;;;3.97;;
75297;SDS011;63896;45.990;18.688;2023-02-26T11:13:06;13.70;;;7.33;;
75297;SDS011;63896;45.990;18.688;2023-02-26T11:16:10;10.93;;;7.20;;
75297;SDS011;63896;45.990;18.688;2023-02-26T11:19:17;9.25;;;5.55;;
75297;SDS011;63896;45.990;18.688;2023-02-26T11:22:27;12.05;;;5.55;;
75297;SDS011;63896;45.990;18.688;2023-02-26T11:25:34;11.23;;;6.00;;
75297;SDS011;63896;45.990;18.688;2023-02-26T11:28:42;12.27;;;5.83;;
75297;SDS011;63896;45.990;18.688;2023-02-26T11:31:49;10.60;;;5.60;;
75297;SDS011;63896;45.990;18.688;2023-02-26T11:34:53;13.82;;;6.40;;
75297;SDS011;63896;45.990;18.688;2023-02-26T11:37:57;11.73;;;6.40;;
75297;SDS011;63896;45.990;18.688;2023-02-26T11:41:03;12.53;;;6.40;;
75297;SDS011;63896;45.990;18.688;2023-02-26T11:44:08;12.33;;;7.00;;
75297;SDS011;63896;45.990;18.688;2023-02-26T11:47:16;12.13;;;6.72;;
75297;SDS011;63896;45.990;18.688;2023-02-26T11:50:23;14.35;;;6.70;;
75297;SDS011;63896;45.990;18.688;2023-02-26T11:53:34;12.15;;;6.75;;
75297;SDS011;63896;45.990;18.688;2023-02-26T11:56:50;11.93;;;5.87;;
75297;SDS011;63896;45.990;18.688;2023-02-26T11:59:54;18.13;;;7.30;;
75297;SDS011;63896;45.990;18.688;2023-02-26T12:03:00;14.75;;;7.15;;
75297;SDS011;63896;45.990;18.688;2023-02-26T12:06:06;14.00;;;7.18;;
75297;SDS011;63896;45.990;18.688;2023-02-26T12:09:18;10.40;;;6.53;;
75297;SDS011;63896;45.990;18.688;2023-02-26T12:15:59;10.97;;;5.87;;
75297;SDS011;63896;45.990;18.688;2023-02-26T12:19:13;9.80;;;5.60;;
75297;SDS011;63896;45.990;18.688;2023-02-26T12:22:38;13.27;;;6.65;;
75297;SDS011;63896;45.990;18.688;2023-02-26T12:33:09;21.03;;;9.00;;
75297;SDS011;63896;45.990;18.688;2023-02-26T12:36:14;16.50;;;8.60;;
75297;SDS011;63896;45.990;18.688;2023-02-26T12:46:17;12.07;;;6.03;;
75297;SDS011;63896;45.990;18.688;2023-02-26T12:57:10;10.98;;;5.63;;
75297;SDS011;63896;45.990;18.688;2023-02-26T13:03:42;9.17;;;5.27;;
75297;SDS011;63896;45.990;18.688;2023-02-26T13:07:06;9.90;;;5.20;;
75297;SDS011;63896;45.990;18.688;2023-02-26T13:20:58;10.90;;;6.10;;
75297;SDS011;63896;45.990;18.688;2023-02-26T13:24:09;9.00;;;5.40;;
75297;SDS011;63896;45.990;18.688;2023-02-26T13:27:16;9.35;;;5.35;;
75297;SDS011;63896;45.990;18.688;2023-02-26T13:33:47;10.18;;;5.63;;
75297;SDS011;63896;45.990;18.688;2023-02-26T13:36:53;9.47;;;5.27;;
75297;SDS011;63896;45.990;18.688;2023-02-26T13:40:03;10.60;;;;;
75297;SDS011;63896;45.990;18.688;2023-02-26T13:57:36;8.30;;;5.30;;
75297;SDS011;63896;45.990;18.688;2023-02-26T14:00:58;8.75;;;4.85;;
75297;SDS011;63896;45.990;18.688;2023-02-26T14:17:25;10.32;;;5.75;;
75297;SDS011;63896;45.990;18.688;2023-02-26T14:20:33;13.07;;;6.07;;
75297;SDS011;63896;45.990;18.688;2023-02-26T14:23:37;12.82;;;7.13;;
75297;SDS011;63896;45.990;18.688;2023-02-26T14:26:45;16.60;;;8.67;;
75297;SDS011;63896;45.990;18.688;2023-02-26T14:36:02;15.02;;;7.13;;
75297;SDS011;63896;45.990;18.688;2023-02-26T14:39:09;17.40;;;7.32;;
75297;SDS011;63896;45.990;18.688;2023-02-26T14:45:48;14.17;;;7.03;;
75297;SDS011;63896;45.990;18.688;2023-02-26T14:48:52;15.65;;;7.50;;
75297;SDS011;63896;45.990;18.688;2023-02-26T14:55:49;12.27;;;6.55;;
75297;SDS011;63896;45.990;18.688;2023-02-26T15:09:17;15.75;;;9.00;;
75297;SDS011;63896;45.990;18.688;2023-02-26T15:12:45;14.25;;;8.02;;
75297;SDS011;63896;45.990;18.688;2023-02-26T15:16:03;15.27;;;7.77;;
75297;SDS011;63896;45.990;18.688;2023-02-26T15:19:17;14.77;;;7.73;;
75297;SDS011;63896;45.990;18.688;2023-02-26T15:25:51;13.25;;;7.35;;
75297;SDS011;63896;45.990;18.688;2023-02-26T15:28:55;13.35;;;7.60;;
75297;SDS011;63896;45.990;18.688;2023-02-26T15:32:20;15.97;;;8.83;;
75297;SDS011;63896;45.990;18.688;2023-02-26T15:35:27;15.63;;;8.63;;
75297;SDS011;63896;45.990;18.688;2023-02-26T15:38:38;14.98;;;8.23;;
75297;SDS011;63896;45.990;18.688;2023-02-26T15:42:02;14.52;;;7.85;;
75297;SDS011;63896;45.990;18.688;2023-02-26T15:45:15;15.38;;;8.80;;
75297;SDS011;63896;45.990;18.688;2023-02-26T15:48:29;15.43;;;8.60;;
75297;SDS011;63896;45.990;18.688;2023-02-26T15:51:34;17.50;;;10.07;;
75297;SDS011;63896;45.990;18.688;2023-02-26T15:54:40;18.27;;;10.18;;
75297;SDS011;63896;45.990;18.688;2023-02-26T15:57:46;16.77;;;9.48;;
75297;SDS011;63896;45.990;18.688;2023-02-26T16:00:53;18.48;;;10.13;;
75297;SDS011;63896;45.990;18.688;2023-02-26T16:03:58;19.10;;;10.03;;
75297;SDS011;63896;45.990;18.688;2023-02-26T16:07:04;15.77;;;8.90;;
75297;SDS011;63896;45.990;18.688;2023-02-26T16:10:15;16.65;;;9.57;;
75297;SDS011;63896;45.990;18.688;2023-02-26T16:13:35;16.25;;;9.50;;
75297;SDS011;63896;45.990;18.688;2023-02-26T16:16:45;16.83;;;10.30;;
75297;SDS011;63896;45.990;18.688;2023-02-26T16:19:51;17.63;;;9.77;;
75297;SDS011;63896;45.990;18.688;2023-02-26T16:22:58;16.83;;;9.33;;
75297;SDS011;63896;45.990;18.688;2023-02-26T16:26:06;17.92;;;9.10;;
75297;SDS011;63896;45.990;18.688;2023-02-26T16:29:15;17.92;;;9.20;;
75297;SDS011;63896;45.990;18.688;2023-02-26T16:32:21;17.98;;;9.75;;
75297;SDS011;63896;45.990;18.688;2023-02-26T16:35:31;19.73;;;10.20;;
75297;SDS011;63896;45.990;18.688;2023-02-26T16:38:43;20.30;;;9.90;;
75297;SDS011;63896;45.990;18.688;2023-02-26T16:41:59;17.85;;;9.98;;
75297;SDS011;63896;45.990;18.688;2023-02-26T16:48:51;20.67;;;11.27;;
75297;SDS011;63896;45.990;18.688;2023-02-26T16:51:58;19.30;;;10.50;;
75297;SDS011;63896;45.990;18.688;2023-02-26T16:55:02;23.60;;;12.53;;
75297;SDS011;63896;45.990;18.688;2023-02-26T16:58:09;24.98;;;13.18;;
75297;SDS011;63896;45.990;18.688;2023-02-26T17:01:16;25.35;;;13.63;;
75297;SDS011;63896;45.990;18.688;2023-02-26T17:04:31;25.02;;;13.35;;
75297;SDS011;63896;45.990;18.688;2023-02-26T17:07:45;24.20;;;12.93;;
75297;SDS011;63896;45.990;18.688;2023-02-26T17:10:54;25.50;;;13.57;;
75297;SDS011;63896;45.990;18.688;2023-02-26T17:14:20;29.27;;;13.80;;
75297;SDS011;63896;45.990;18.688;2023-02-26T17:17:28;27.95;;;13.93;;
75297;SDS011;63896;45.990;18.688;2023-02-26T17:20:31;26.30;;;13.68;;
75297;SDS011;63896;45.990;18.688;2023-02-26T17:23:35;26.33;;;14.23;;
75297;SDS011;63896;45.990;18.688;2023-02-26T17:26:40;28.87;;;14.27;;
75297;SDS011;63896;45.990;18.688;2023-02-26T17:29:44;29.35;;;13.90;;
75297;SDS011;63896;45.990;18.688;2023-02-26T17:32:52;30.05;;;15.23;;
75297;SDS011;63896;45.990;18.688;2023-02-26T17:35:57;36.42;;;17.33;;
75297;SDS011;63896;45.990;18.688;2023-02-26T17:39:02;37.90;;;17.67;;
75297;SDS011;63896;45.990;18.688;2023-02-26T17:42:12;31.30;;;15.10;;
75297;SDS011;63896;45.990;18.688;2023-02-26T17:45:17;28.73;;;14.38;;
75297;SDS011;63896;45.990;18.688;2023-02-26T17:48:22;25.77;;;13.73;;
75297;SDS011;63896;45.990;18.688;2023-02-26T17:51:25;26.85;;;13.32;;
75297;SDS011;63896;45.990;18.688;2023-02-26T17:54:29;27.47;;;14.23;;
75297;SDS011;63896;45.990;18.688;2023-02-26T17:57:33;28.30;;;14.17;;
75297;SDS011;63896;45.990;18.688;2023-02-26T18:00:37;26.63;;;13.98;;
75297;SDS011;63896;45.990;18.688;2023-02-26T18:03:44;26.83;;;13.65;;
75297;SDS011;63896;45.990;18.688;2023-02-26T18:06:47;30.80;;;14.48;;
75297;SDS011;63896;45.990;18.688;2023-02-26T18:09:51;26.70;;;14.37;;
75297;SDS011;63896;45.990;18.688;2023-02-26T18:12:54;30.63;;;15.70;;
75297;SDS011;63896;45.990;18.688;2023-02-26T18:15:58;26.90;;;13.40;;
75297;SDS011;63896;45.990;18.688;2023-02-26T18:19:04;25.55;;;13.18;;
75297;SDS011;63896;45.990;18.688;2023-02-26T18:22:14;27.98;;;14.32;;
75297;SDS011;63896;45.990;18.688;2023-02-26T18:25:19;29.47;;;14.80;;
75297;SDS011;63896;45.990;18.688;2023-02-26T18:28:23;27.50;;;14.80;;
75297;SDS011;63896;45.990;18.688;2023-02-26T18:31:28;31.50;;;14.77;;
75297;SDS011;63896;45.990;18.688;2023-02-26T18:34:36;33.72;;;14.93;;
75297;SDS011;63896;45.990;18.688;2023-02-26T18:37:40;30.27;;;16.40;;
75297;SDS011;63896;45.990;18.688;2023-02-26T18:40:43;28.70;;;14.70;;
75297;SDS011;63896;45.990;18.688;2023-02-26T18:43:47;28.67;;;14.73;;
75297;SDS011;63896;45.990;18.688;2023-02-26T18:46:50;27.30;;;14.10;;
75297;SDS011;63896;45.990;18.688;2023-02-26T18:49:54;27.83;;;13.70;;
75297;SDS011;63896;45.990;18.688;2023-02-26T18:52:58;24.75;;;13.93;;
75297;SDS011;63896;45.990;18.688;2023-02-26T18:56:01;30.20;;;14.93;;
75297;SDS011;63896;45.990;18.688;2023-02-26T18:59:05;28.70;;;14.30;;
75297;SDS011;63896;45.990;18.688;2023-02-26T19:02:09;27.20;;;13.75;;
75297;SDS011;63896;45.990;18.688;2023-02-26T19:05:15;25.25;;;13.57;;
75297;SDS011;63896;45.990;18.688;2023-02-26T19:08:20;25.90;;;12.90;;
75297;SDS011;63896;45.990;18.688;2023-02-26T19:11:23;28.07;;;14.70;;
75297;SDS011;63896;45.990;18.688;2023-02-26T19:14:27;28.73;;;13.37;;
75297;SDS011;63896;45.990;18.688;2023-02-26T19:17:30;26.42;;;13.85;;
75297;SDS011;63896;45.990;18.688;2023-02-26T19:20:34;27.58;;;13.43;;
75297;SDS011;63896;45.990;18.688;2023-02-26T19:23:36;29.83;;;13.13;;
75297;SDS011;63896;45.990;18.688;2023-02-26T19:26:40;25.57;;;13.97;;
75297;SDS011;63896;45.990;18.688;2023-02-26T19:29:44;24.40;;;12.77;;
75297;SDS011;63896;45.990;18.688;2023-02-26T19:32:48;25.42;;;13.48;;
75297;SDS011;63896;45.990;18.688;2023-02-26T19:35:53;24.75;;;12.50;;
75297;SDS011;63896;45.990;18.688;2023-02-26T19:38:55;23.35;;;12.07;;
75297;SDS011;63896;45.990;18.688;2023-02-26T19:41:59;21.57;;;11.33;;
75297;SDS011;63896;45.990;18.688;2023-02-26T19:45:02;20.23;;;10.53;;
75297;SDS011;63896;45.990;18.688;2023-02-26T19:48:06;26.58;;;10.80;;
75297;SDS011;63896;45.990;18.688;2023-02-26T19:51:09;21.83;;;10.68;;
75297;SDS011;63896;45.990;18.688;2023-02-26T19:54:12;18.45;;;9.32;;
75297;SDS011;63896;45.990;18.688;2023-02-26T19:57:15;15.57;;;8.80;;
75297;SDS011;63896;45.990;18.688;2023-02-26T20:00:19;16.57;;;9.20;;
75297;SDS011;63896;45.990;18.688;2023-02-26T20:03:23;17.25;;;9.20;;
75297;SDS011;63896;45.990;18.688;2023-02-26T20:06:27;19.23;;;8.95;;
75297;SDS011;63896;45.990;18.688;2023-02-26T20:09:30;18.33;;;9.82;;
75297;SDS011;63896;45.990;18.688;2023-02-26T20:12:34;19.20;;;8.53;;
75297;SDS011;63896;45.990;18.688;2023-02-26T20:15:38;16.93;;;7.93;;
75297;SDS011;63896;45.990;18.688;2023-02-26T20:18:42;19.85;;;8.45;;
75297;SDS011;63896;45.990;18.688;2023-02-26T20:21:47;16.25;;;6.93;;
75297;SDS011;63896;45.990;18.688;2023-02-26T20:24:51;17.25;;;8.13;;
75297;SDS011;63896;45.990;18.688;2023-02-26T20:27:55;14.17;;;7.77;;
75297;SDS011;63896;45.990;18.688;2023-02-26T20:30:58;16.07;;;8.17;;
75297;SDS011;63896;45.990;18.688;2023-02-26T20:34:01;16.40;;;7.63;;
75297;SDS011;63896;45.990;18.688;2023-02-26T20:37:04;13.43;;;6.82;;
75297;SDS011;63896;45.990;18.688;2023-02-26T20:40:08;11.57;;;6.20;;
75297;SDS011;63896;45.990;18.688;2023-02-26T20:43:12;10.67;;;5.20;;
75297;SDS011;63896;45.990;18.688;2023-02-26T20:46:16;11.63;;;6.23;;
75297;SDS011;63896;45.990;18.688;2023-02-26T20:49:20;14.60;;;6.55;;
75297;SDS011;63896;45.990;18.688;2023-02-26T20:52:23;14.18;;;7.05;;
75297;SDS011;63896;45.990;18.688;2023-02-26T20:55:27;11.18;;;5.85;;
75297;SDS011;63896;45.990;18.688;2023-02-26T20:58:30;12.17;;;5.77;;